Time;durP1;ratioP1;P1;durP2;ratioP2;P2;SDS_P1;SDS_P2;PMS_P1;PMS_P2;Temp;Humidity;BMP_temperature;BMP_pressure;BME280_temperature;BME280_humidity;BME280_pressure;Samples;Min_cycle;Max_cycle;Signal;HPM_P1;HPM_P2
2022/01/22 00:01:18;;;;;;;15.25;1.88;;;;;;;;;;5091656;28;20202;-78
2022/01/22 00:03:45;;;;;;;9.63;1.88;;;;;;;;;;5091264;28;20539;-78
2022/01/22 00:06:12;;;;;;;10.50;1.58;;;;;;;;;;5091407;28;20044;-78
2022/01/22 00:08:38;;;;;;;7.82;1.50;;;;;;;;;;5092038;28;20056;-78
2022/01/22 00:11:04;;;;;;;8.93;1.50;;;;;;;;;;5091510;28;20074;-78
2022/01/22 00:16:17;;;;;;;9.10;2.00;;;;;;;;;;5106945;28;20137;-79
2022/01/22 00:18:43;;;;;;;6.97;1.63;;;;;;;;;;5109421;28;20109;-78
2022/01/22 00:21:09;;;;;;;18.92;2.53;;;;;;;;;;5110127;28;20310;-78
2022/01/22 00:23:39;;;;;;;13.73;2.08;;;;;;;;;;5108206;27;20052;-79
2022/01/22 00:26:05;;;;;;;13.27;1.98;;;;;;;;;;5109059;28;20515;-79
2022/01/22 00:28:31;;;;;;;9.85;2.00;;;;;;;;;;5110000;27;20133;-79
2022/01/22 00:30:58;;;;;;;16.55;2.00;;;;;;;;;;5107179;28;20102;-78
2022/01/22 00:33:24;;;;;;;15.30;2.40;;;;;;;;;;5109682;28;20168;-78
2022/01/22 00:35:51;;;;;;;18.88;2.70;;;;;;;;;;5109745;27;20082;-78
2022/01/22 00:38:17;;;;;;;15.10;2.05;;;;;;;;;;5110029;28;20057;-78
2022/01/22 00:40:50;;;;;;;9.75;1.95;;;;;;;;;;5091230;28;20075;-78
2022/01/22 00:43:17;;;;;;;8.88;1.85;;;;;;;;;;5090200;28;20060;-78
2022/01/22 00:45:43;;;;;;;13.85;2.25;;;;;;;;;;5108576;28;20075;-78
2022/01/22 00:48:10;;;;;;;15.60;2.25;;;;;;;;;;5081886;28;20503;-78
2022/01/22 00:50:36;;;;;;;19.35;2.55;;;;;;;;;;5087913;28;20740;-78
2022/01/22 00:53:03;;;;;;;11.90;2.78;;;;;;;;;;5106592;27;20052;-78
2022/01/22 00:55:29;;;;;;;10.20;2.67;;;;;;;;;;5108460;28;20109;-78
2022/01/22 00:57:56;;;;;;;13.40;2.80;;;;;;;;;;5109561;28;20110;-78
2022/01/22 01:00:22;;;;;;;11.90;2.42;;;;;;;;;;5091194;28;20056;-78
2022/01/22 01:02:49;;;;;;;11.82;2.40;;;;;;;;;;5104593;27;20083;-78
2022/01/22 01:05:15;;;;;;;9.85;2.42;;;;;;;;;;5108094;27;20052;-78
2022/01/22 01:07:42;;;;;;;11.00;2.03;;;;;;;;;;5092620;28;20556;-78
2022/01/22 01:10:13;;;;;;;9.52;1.77;;;;;;;;;;5112393;28;20186;-78
2022/01/22 01:12:40;;;;;;;18.05;2.92;;;;;;;;;;5112519;28;20143;-78
2022/01/22 01:34:23;;;;;;;16.13;2.47;;;;;;;;;;5110290;27;20917;-78
2022/01/22 01:36:49;;;;;;;14.05;2.53;;;;;;;;;;5093969;28;20060;-78
2022/01/22 01:39:22;;;;;;;20.17;3.25;;;;;;;;;;5107036;28;20051;-78
2022/01/22 01:44:34;;;;;;;16.25;3.85;;;;;;;;;;5111318;28;20160;-78
2022/01/22 01:47:02;;;;;;;13.18;3.20;;;;;;;;;;5111659;28;20860;-78
2022/01/22 01:49:29;;;;;;;14.88;3.65;;;;;;;;;;5111476;28;20048;-78
2022/01/22 01:51:58;;;;;;;14.73;2.75;;;;;;;;;;5093218;28;20080;-79
2022/01/22 01:59:40;;;;;;;20.10;3.53;;;;;;;;;;5091641;28;20076;-78
2022/01/22 02:02:07;;;;;;;15.88;3.40;;;;;;;;;;5080972;28;20048;-78
2022/01/22 02:04:33;;;;;;;16.95;3.22;;;;;;;;;;5111418;27;20059;-78
2022/01/22 02:06:59;;;;;;;15.68;3.60;;;;;;;;;;5110351;27;20080;-78
2022/01/22 02:09:26;;;;;;;17.17;3.13;;;;;;;;;;5110958;28;20064;-78
2022/01/22 02:12:05;;;;;;;21.77;3.42;;;;;;;;;;5111653;28;20082;-78
2022/01/22 02:25:26;;;;;;;14.52;3.50;;;;;;;;;;5111564;28;20060;-79
2022/01/22 02:27:53;;;;;;;16.65;3.60;;;;;;;;;;5095234;28;20105;-79
2022/01/22 02:30:23;;;;;;;22.85;4.32;;;;;;;;;;5102935;28;21374;-79
2022/01/22 02:33:49;;;;;;;19.63;3.67;;;;;;;;;;5106394;27;20075;-79
2022/01/22 02:36:01;;;;;;;15.57;4.30;;;;;;;;;;5098126;28;20048;-79
2022/01/22 02:38:42;;;;;;;13.70;3.55;;;;;;;;;;5094263;28;20919;-79
2022/01/22 02:41:14;;;;;;;20.33;4.03;;;;;;;;;;5111780;27;20079;-79
2022/01/22 02:43:40;;;;;;;17.85;4.00;;;;;;;;;;5094357;28;20082;-79
2022/01/22 02:46:06;;;;;;;17.50;3.50;;;;;;;;;;5112592;27;20194;-78
2022/01/22 02:48:33;;;;;;;17.50;3.92;;;;;;;;;;5098420;28;20083;-79
2022/01/22 02:50:59;;;;;;;20.33;3.63;;;;;;;;;;5112718;27;20074;-79
2022/01/22 02:53:26;;;;;;;19.88;4.20;;;;;;;;;;5093631;28;20088;-79
2022/01/22 02:55:54;;;;;;;15.95;3.70;;;;;;;;;;5093243;28;20079;-79
2022/01/22 02:58:20;;;;;;;27.00;4.35;;;;;;;;;;5094521;28;21013;-79
2022/01/22 03:00:46;;;;;;;15.05;4.32;;;;;;;;;;5112077;28;20087;-79
2022/01/22 03:03:14;;;;;;;20.83;4.50;;;;;;;;;;5110800;28;20059;-79
2022/01/22 03:05:40;;;;;;;19.38;3.97;;;;;;;;;;5093670;28;20040;-79
2022/01/22 03:08:09;;;;;;;15.35;3.70;;;;;;;;;;5112340;28;20070;-79
2022/01/22 03:10:37;;;;;;;20.65;3.78;;;;;;;;;;5094151;28;20048;-79
2022/01/22 03:14:09;;;;;;;14.88;3.28;;;;;;;;;;5094310;28;20059;-79
2022/01/22 03:18:34;;;;;;;12.85;3.22;;;;;;;;;;5109599;27;20094;-79
2022/01/22 03:29:09;;;;;;;12.98;3.60;;;;;;;;;;5112035;28;20052;-79
2022/01/22 03:31:36;;;;;;;15.07;3.20;;;;;;;;;;5110953;27;20083;-79
2022/01/22 03:34:03;;;;;;;14.80;3.28;;;;;;;;;;5111783;27;20117;-79
2022/01/22 03:36:33;;;;;;;17.83;3.50;;;;;;;;;;5111338;28;20048;-79
2022/01/22 03:39:00;;;;;;;14.73;3.13;;;;;;;;;;5077440;28;20134;-79
2022/01/22 03:41:26;;;;;;;13.32;3.20;;;;;;;;;;5097346;28;20576;-79
2022/01/22 03:43:52;;;;;;;17.40;3.15;;;;;;;;;;5111278;28;20121;-79
2022/01/22 03:46:20;;;;;;;12.82;3.10;;;;;;;;;;5110948;27;20048;-79
2022/01/22 03:48:46;;;;;;;14.20;3.22;;;;;;;;;;5111997;28;20064;-79
2022/01/22 03:51:13;;;;;;;19.58;3.33;;;;;;;;;;5092802;28;20060;-79
2022/01/22 03:53:39;;;;;;;14.57;3.35;;;;;;;;;;5093760;28;20084;-79
2022/01/22 03:56:07;;;;;;;11.35;2.90;;;;;;;;;;5077026;28;20060;-79
2022/01/22 03:58:34;;;;;;;18.48;3.08;;;;;;;;;;5091389;28;20095;-79
2022/01/22 04:04:01;;;;;;;18.65;2.85;;;;;;;;;;5111776;28;20040;-79
2022/01/22 04:09:07;;;;;;;13.68;2.58;;;;;;;;;;5091157;28;20234;-79
2022/01/22 04:11:37;;;;;;;13.27;3.03;;;;;;;;;;5079093;28;20056;-79
2022/01/22 04:14:05;;;;;;;11.13;2.80;;;;;;;;;;5092896;28;20096;-79
2022/01/22 04:16:32;;;;;;;18.23;3.03;;;;;;;;;;5093647;28;20567;-79
2022/01/22 04:27:21;;;;;;;14.23;3.72;;;;;;;;;;5110745;28;20066;-79
2022/01/22 04:29:47;;;;;;;16.95;3.47;;;;;;;;;;5106028;28;20079;-79
2022/01/22 04:32:14;;;;;;;17.23;3.17;;;;;;;;;;5108777;28;20040;-79
2022/01/22 04:34:40;;;;;;;15.68;3.38;;;;;;;;;;5110775;28;20098;-79
2022/01/22 04:37:06;;;;;;;17.27;3.85;;;;;;;;;;5092446;28;20098;-79
2022/01/22 04:39:33;;;;;;;16.90;3.50;;;;;;;;;;5109793;28;20072;-79
2022/01/22 04:41:59;;;;;;;20.50;3.35;;;;;;;;;;5093291;28;20075;-79
2022/01/22 04:44:30;;;;;;;18.70;4.55;;;;;;;;;;5113910;27;20078;-78
2022/01/22 04:54:59;;;;;;;10.50;3.10;;;;;;;;;;5113828;28;20487;-79
2022/01/22 04:57:29;;;;;;;15.80;3.42;;;;;;;;;;5095269;27;20097;-78
2022/01/22 04:59:56;;;;;;;17.63;3.30;;;;;;;;;;5092676;28;20052;-79
2022/01/22 05:02:22;;;;;;;13.45;3.38;;;;;;;;;;5111024;28;20110;-79
2022/01/22 05:04:49;;;;;;;19.90;3.45;;;;;;;;;;5093729;27;20067;-79
2022/01/22 05:07:15;;;;;;;18.27;4.00;;;;;;;;;;5080104;28;20055;-78
2022/01/22 05:09:41;;;;;;;13.18;3.50;;;;;;;;;;5095876;28;20091;-79
2022/01/22 05:12:08;;;;;;;12.02;3.20;;;;;;;;;;5113602;27;20054;-79
2022/01/22 05:14:34;;;;;;;12.20;3.63;;;;;;;;;;5094802;28;20052;-79
2022/01/22 05:17:04;;;;;;;19.17;4.05;;;;;;;;;;5095252;28;20052;-79
2022/01/22 05:22:15;;;;;;;18.60;3.55;;;;;;;;;;5101500;28;20082;-79
2022/01/22 05:24:46;;;;;;;13.20;4.10;;;;;;;;;;5113969;28;20056;-79
2022/01/22 05:28:02;;;;;;;15.43;4.03;;;;;;;;;;5101377;28;20063;-79
2022/01/22 05:32:56;;;;;;;18.20;4.47;;;;;;;;;;5109853;28;20087;-79
2022/01/22 05:38:09;;;;;;;18.10;4.25;;;;;;;;;;5097304;28;20107;-79
2022/01/22 05:40:36;;;;;;;16.73;4.47;;;;;;;;;;5095394;27;20052;-79
2022/01/22 05:43:03;;;;;;;13.73;4.00;;;;;;;;;;5113149;28;20098;-79
2022/01/22 05:45:29;;;;;;;17.50;4.07;;;;;;;;;;5095140;27;20067;-79
2022/01/22 05:47:56;;;;;;;17.52;3.95;;;;;;;;;;5113754;28;20090;-79
2022/01/22 05:50:33;;;;;;;19.55;5.00;;;;;;;;;;5095255;28;20056;-79
2022/01/22 05:53:06;;;;;;;11.00;4.15;;;;;;;;;;5112692;28;20068;-79
2022/01/22 06:01:02;;;;;;;13.90;3.72;;;;;;;;;;5112970;28;20526;-79
2022/01/22 06:03:29;;;;;;;19.35;4.22;;;;;;;;;;5111913;27;20052;-79
2022/01/22 06:05:55;;;;;;;14.85;4.03;;;;;;;;;;5094662;28;20061;-79
2022/01/22 06:08:22;;;;;;;21.90;4.50;;;;;;;;;;5113116;28;20826;-79
2022/01/22 06:10:54;;;;;;;13.50;3.88;;;;;;;;;;5088283;28;20471;-79
2022/01/22 06:13:28;;;;;;;15.63;4.10;;;;;;;;;;5094862;28;20048;-79
2022/01/22 06:15:54;;;;;;;11.50;3.55;;;;;;;;;;5095003;28;20110;-79
2022/01/22 06:18:21;;;;;;;14.38;4.10;;;;;;;;;;5111871;28;20056;-79
2022/01/22 06:20:47;;;;;;;16.55;3.70;;;;;;;;;;5094600;28;20079;-79
2022/01/22 06:23:14;;;;;;;22.13;4.10;;;;;;;;;;5112493;28;20087;-79
2022/01/22 06:25:40;;;;;;;17.77;3.58;;;;;;;;;;5095325;28;20056;-79
2022/01/22 06:28:07;;;;;;;23.33;3.83;;;;;;;;;;5086411;28;20080;-79
2022/01/22 06:30:33;;;;;;;21.92;3.72;;;;;;;;;;5110449;27;20862;-79
2022/01/22 06:33:00;;;;;;;17.08;3.67;;;;;;;;;;5095033;28;20145;-79
2022/01/22 06:35:26;;;;;;;18.33;3.38;;;;;;;;;;5112391;28;20136;-79
2022/01/22 06:37:52;;;;;;;12.88;3.40;;;;;;;;;;5095527;27;20048;-79
2022/01/22 06:42:45;;;;;;;11.48;3.13;;;;;;;;;;5104584;28;20156;-79
2022/01/22 06:45:14;;;;;;;8.93;3.33;;;;;;;;;;5091263;27;20051;-79
2022/01/22 06:47:41;;;;;;;13.25;3.15;;;;;;;;;;5111587;28;20584;-79
2022/01/22 06:50:07;;;;;;;16.80;3.13;;;;;;;;;;5112112;28;20044;-78
2022/01/22 06:52:34;;;;;;;14.05;3.00;;;;;;;;;;5093789;28;20104;-79
2022/01/22 06:55:00;;;;;;;11.63;2.67;;;;;;;;;;5112323;28;20086;-79
2022/01/22 06:57:27;;;;;;;10.82;2.80;;;;;;;;;;5098292;28;20072;-79
2022/01/22 06:59:53;;;;;;;12.43;3.03;;;;;;;;;;5087529;28;20932;-78
2022/01/22 07:02:20;;;;;;;10.93;3.25;;;;;;;;;;5103244;27;20075;-79
2022/01/22 07:04:47;;;;;;;12.60;2.88;;;;;;;;;;5091908;27;20044;-79
2022/01/22 07:07:13;;;;;;;13.68;2.90;;;;;;;;;;5111653;28;20056;-79
2022/01/22 07:09:40;;;;;;;11.10;3.20;;;;;;;;;;5093024;28;20056;-78
2022/01/22 07:12:06;;;;;;;15.00;3.70;;;;;;;;;;5093333;28;20074;-78
2022/01/22 07:14:33;;;;;;;12.43;2.83;;;;;;;;;;5110754;28;20041;-79
2022/01/22 07:17:00;;;;;;;9.70;3.42;;;;;;;;;;5093527;28;20137;-79
2022/01/22 07:19:26;;;;;;;17.58;3.42;;;;;;;;;;5100004;28;20672;-78
2022/01/22 07:22:02;;;;;;;19.63;3.60;;;;;;;;;;5084118;28;20055;-79
2022/01/22 07:24:36;;;;;;;14.80;3.28;;;;;;;;;;5094425;28;20825;-78
2022/01/22 07:27:03;;;;;;;16.13;2.95;;;;;;;;;;5092459;28;20106;-78
2022/01/22 07:29:30;;;;;;;11.20;2.63;;;;;;;;;;5099427;27;20059;-78
2022/01/22 07:32:01;;;;;;;9.10;2.35;;;;;;;;;;5087823;28;20048;-79
2022/01/22 07:34:27;;;;;;;13.30;2.50;;;;;;;;;;5107197;27;20035;-79
2022/01/22 07:36:53;;;;;;;12.70;2.28;;;;;;;;;;5101955;27;20082;-83
2022/01/22 07:39:20;;;;;;;10.50;2.50;;;;;;;;;;5101996;27;20055;-77
2022/01/22 07:41:46;;;;;;;11.05;2.30;;;;;;;;;;5101764;27;20063;-77
2022/01/22 07:44:13;;;;;;;13.30;2.08;;;;;;;;;;5111854;27;20503;-77
2022/01/22 07:46:39;;;;;;;13.52;2.20;;;;;;;;;;5111866;27;20048;-77
2022/01/22 07:49:06;;;;;;;8.20;1.75;;;;;;;;;;5089909;27;20055;-77
2022/01/22 07:51:32;;;;;;;8.80;2.17;;;;;;;;;;5109036;27;20075;-77
2022/01/22 07:54:00;;;;;;;7.63;2.30;;;;;;;;;;5095160;28;20048;-77
2022/01/22 07:56:27;;;;;;;12.27;2.47;;;;;;;;;;5093310;27;20058;-77
2022/01/22 07:58:53;;;;;;;11.13;2.40;;;;;;;;;;5117605;27;20056;-77
2022/01/22 08:01:19;;;;;;;12.65;2.42;;;;;;;;;;5089335;27;20078;-77
2022/01/22 08:03:46;;;;;;;11.15;2.20;;;;;;;;;;5107883;27;20052;-77
2022/01/22 08:06:12;;;;;;;10.20;2.40;;;;;;;;;;5089803;28;20616;-77
2022/01/22 08:08:39;;;;;;;10.38;1.90;;;;;;;;;;5098595;27;20056;-77
2022/01/22 08:11:05;;;;;;;6.57;1.90;;;;;;;;;;5090555;27;20094;-77
2022/01/22 08:13:31;;;;;;;12.65;2.17;;;;;;;;;;5109269;28;20048;-77
2022/01/22 08:15:58;;;;;;;7.60;1.75;;;;;;;;;;5108928;28;20952;-77
2022/01/22 08:18:24;;;;;;;9.77;2.60;;;;;;;;;;5092310;28;20087;-77
2022/01/22 08:20:51;;;;;;;12.57;2.10;;;;;;;;;;5112437;28;20539;-77
2022/01/22 08:23:20;;;;;;;14.15;3.00;;;;;;;;;;5092581;28;20044;-77
2022/01/22 08:25:47;;;;;;;9.75;2.03;;;;;;;;;;5100208;27;20580;-77
2022/01/22 08:31:05;;;;;;;12.88;2.78;;;;;;;;;;5112153;27;20082;-79
2022/01/22 08:35:52;;;;;;;10.52;2.55;;;;;;;;;;5093008;27;20102;-77
2022/01/22 08:36:18;;;;;;;11.18;2.00;;;;;;;;;;5109137;27;20075;-77
2022/01/22 08:38:44;;;;;;;8.13;2.50;;;;;;;;;;5100531;27;20151;-77
2022/01/22 08:41:11;;;;;;;14.80;3.42;;;;;;;;;;5093280;28;20589;-78
2022/01/22 08:43:37;;;;;;;11.02;2.22;;;;;;;;;;5088837;27;20130;-78
2022/01/22 08:46:03;;;;;;;8.20;2.00;;;;;;;;;;5092330;28;20052;-78
2022/01/22 08:48:30;;;;;;;17.58;2.08;;;;;;;;;;5093684;28;20540;-78
2022/01/22 08:50:57;;;;;;;10.85;1.85;;;;;;;;;;5112556;28;20119;-77
2022/01/22 08:53:43;;;;;;;7.18;1.73;;;;;;;;;;5111234;28;20060;-78
2022/01/22 08:56:10;;;;;;;8.63;1.90;;;;;;;;;;5093749;28;20059;-78
2022/01/22 08:58:36;;;;;;;10.10;1.55;;;;;;;;;;5085349;28;20628;-78
2022/01/22 09:01:02;;;;;;;9.10;1.90;;;;;;;;;;5112038;27;20129;-77
2022/01/22 09:03:29;;;;;;;8.55;1.92;;;;;;;;;;5107953;28;20052;-77
2022/01/22 09:05:56;;;;;;;10.30;1.80;;;;;;;;;;5093038;28;20092;-78
2022/01/22 09:08:24;;;;;;;10.38;2.28;;;;;;;;;;5110244;27;20587;-78
2022/01/22 09:10:52;;;;;;;12.60;2.40;;;;;;;;;;5090397;27;20125;-78
2022/01/22 09:13:19;;;;;;;12.68;2.15;;;;;;;;;;5092383;28;20102;-78
2022/01/22 09:15:45;;;;;;;9.48;2.35;;;;;;;;;;5108526;27;20091;-78
2022/01/22 09:18:12;;;;;;;10.43;2.45;;;;;;;;;;5092021;28;20107;-78
2022/01/22 09:23:05;;;;;;;8.73;2.00;;;;;;;;;;5116089;27;20139;-78
2022/01/22 09:25:32;;;;;;;12.65;2.35;;;;;;;;;;5093841;27;20167;-78
2022/01/22 09:27:58;;;;;;;8.85;2.08;;;;;;;;;;5093375;27;20098;-78
2022/01/22 09:30:25;;;;;;;7.95;2.38;;;;;;;;;;5091824;27;20052;-78
2022/01/22 09:32:51;;;;;;;10.90;2.92;;;;;;;;;;5082558;28;20146;-78
2022/01/22 09:35:21;;;;;;;17.52;2.83;;;;;;;;;;5080651;27;20059;-78
2022/01/22 09:37:48;;;;;;;12.70;2.38;;;;;;;;;;5112050;28;20075;-77
2022/01/22 09:40:14;;;;;;;17.23;2.67;;;;;;;;;;5110871;28;20106;-77
2022/01/22 09:42:41;;;;;;;7.72;2.95;;;;;;;;;;5091057;28;20110;-77
2022/01/22 09:45:08;;;;;;;6.35;2.45;;;;;;;;;;5104367;28;20056;-77
2022/01/22 09:47:35;;;;;;;7.22;2.20;;;;;;;;;;5104783;28;20048;-77
2022/01/22 09:50:03;;;;;;;13.13;2.92;;;;;;;;;;5109953;28;20074;-77
2022/01/22 09:52:29;;;;;;;6.38;2.50;;;;;;;;;;5082139;28;20048;-77
2022/01/22 09:54:56;;;;;;;13.80;3.50;;;;;;;;;;5110168;28;20105;-78
2022/01/22 09:57:22;;;;;;;13.00;4.32;;;;;;;;;;5091630;27;20591;-77
2022/01/22 09:59:49;;;;;;;14.57;4.97;;;;;;;;;;5091170;28;20052;-77
2022/01/22 10:02:17;;;;;;;18.35;5.15;;;;;;;;;;5092028;28;20676;-78
2022/01/22 10:04:45;;;;;;;14.40;5.05;;;;;;;;;;5092550;28;20052;-77
2022/01/22 10:07:29;;;;;;;15.23;5.55;;;;;;;;;;5109315;28;20083;-77
2022/01/22 10:09:57;;;;;;;17.10;6.00;;;;;;;;;;5098814;28;20107;-77
2022/01/22 10:12:25;;;;;;;15.63;6.13;;;;;;;;;;5109569;28;20148;-78
2022/01/22 10:15:04;;;;;;;15.40;5.47;;;;;;;;;;5091598;28;20423;-78
2022/01/22 10:17:47;;;;;;;13.90;5.25;;;;;;;;;;5091134;27;20495;-78
2022/01/22 10:20:23;;;;;;;13.40;5.65;;;;;;;;;;5090808;28;20059;-77
2022/01/22 10:22:51;;;;;;;13.02;5.65;;;;;;;;;;5091121;28;20149;-77
2022/01/22 10:25:23;;;;;;;23.80;6.22;;;;;;;;;;5107880;28;20097;-77
2022/01/22 10:28:00;;;;;;;16.75;5.85;;;;;;;;;;5107279;28;20075;-78
2022/01/22 10:30:42;;;;;;;15.95;6.22;;;;;;;;;;5110009;28;20260;-77
2022/01/22 10:36:08;;;;;;;17.40;6.65;;;;;;;;;;5109098;27;20079;-77
2022/01/22 10:38:43;;;;;;;18.40;6.68;;;;;;;;;;5108981;28;20506;-77
2022/01/22 10:41:10;;;;;;;17.55;6.90;;;;;;;;;;5089977;28;20143;-77
2022/01/22 10:43:44;;;;;;;19.70;7.38;;;;;;;;;;5097054;28;20385;-77
2022/01/22 10:46:22;;;;;;;20.48;7.00;;;;;;;;;;5107959;27;20047;-77
2022/01/22 10:48:56;;;;;;;15.57;6.95;;;;;;;;;;5090155;28;20048;-77
2022/01/22 10:51:23;;;;;;;20.67;7.50;;;;;;;;;;5091000;28;20161;-78
2022/01/22 10:53:55;;;;;;;15.88;6.65;;;;;;;;;;5091229;28;20146;-77
2022/01/22 10:56:22;;;;;;;15.55;6.22;;;;;;;;;;5090414;28;20392;-78
2022/01/22 10:58:54;;;;;;;12.88;4.80;;;;;;;;;;5089932;28;21061;-77
2022/01/22 11:01:21;;;;;;;11.45;4.57;;;;;;;;;;5102703;27;20172;-77
2022/01/22 11:04:05;;;;;;;11.60;4.70;;;;;;;;;;5109307;27;20129;-77
2022/01/22 11:06:32;;;;;;;12.00;4.95;;;;;;;;;;5090756;28;20105;-77
2022/01/22 11:08:58;;;;;;;10.00;5.00;;;;;;;;;;5090523;28;20080;-77
2022/01/22 11:11:25;;;;;;;9.57;4.03;;;;;;;;;;5089886;28;20048;-77
2022/01/22 11:13:52;;;;;;;11.40;3.80;;;;;;;;;;5090910;28;20055;-77
2022/01/22 11:16:19;;;;;;;13.93;3.95;;;;;;;;;;5087698;27;20390;-77
2022/01/22 11:19:06;;;;;;;10.38;3.55;;;;;;;;;;5073524;28;20551;-77
2022/01/22 11:21:33;;;;;;;10.45;4.30;;;;;;;;;;5072477;28;20048;-77
2022/01/22 11:23:59;;;;;;;10.68;4.22;;;;;;;;;;5090051;28;20514;-77
2022/01/22 11:26:26;;;;;;;10.32;4.50;;;;;;;;;;5089513;28;20088;-77
2022/01/22 11:28:53;;;;;;;12.52;4.85;;;;;;;;;;5086568;28;20080;-77
2022/01/22 11:31:20;;;;;;;11.40;3.55;;;;;;;;;;5103011;28;20521;-77
2022/01/22 11:33:48;;;;;;;9.82;3.72;;;;;;;;;;5100988;28;20525;-77
2022/01/22 11:36:26;;;;;;;15.00;4.05;;;;;;;;;;5090745;28;20091;-77
2022/01/22 11:39:00;;;;;;;9.18;4.32;;;;;;;;;;5108601;28;20048;-77
2022/01/22 11:41:27;;;;;;;9.90;5.38;;;;;;;;;;5108346;28;20059;-77
2022/01/22 11:46:45;;;;;;;11.85;4.63;;;;;;;;;;5100109;27;20496;-77
2022/01/22 11:49:12;;;;;;;12.63;5.13;;;;;;;;;;5089029;28;20075;-77
2022/01/22 11:51:39;;;;;;;12.55;4.90;;;;;;;;;;5077147;28;20052;-77
2022/01/22 11:54:05;;;;;;;12.73;5.50;;;;;;;;;;5088232;28;20813;-77
2022/01/22 11:56:50;;;;;;;15.30;6.00;;;;;;;;;;5087682;28;20063;-77
2022/01/22 11:59:18;;;;;;;15.60;5.93;;;;;;;;;;5097590;27;20040;-77
2022/01/22 12:01:52;;;;;;;16.30;6.20;;;;;;;;;;5115644;27;20052;-77
2022/01/22 12:04:20;;;;;;;15.80;6.50;;;;;;;;;;5109156;28;20059;-77
2022/01/22 12:07:02;;;;;;;18.65;6.43;;;;;;;;;;5089231;28;20059;-77
2022/01/22 12:09:41;;;;;;;12.25;5.72;;;;;;;;;;5094605;27;20147;-77
2022/01/22 12:15:11;;;;;;;16.00;6.65;;;;;;;;;;5109363;28;20079;-77
2022/01/22 12:17:46;;;;;;;12.77;5.80;;;;;;;;;;5089795;28;20071;-77
2022/01/22 12:23:16;;;;;;;11.18;5.78;;;;;;;;;;5101660;27;20105;-77
2022/01/22 12:25:42;;;;;;;14.32;6.20;;;;;;;;;;5077030;28;20146;-77
2022/01/22 12:28:09;;;;;;;18.45;6.57;;;;;;;;;;5088068;28;20048;-77
2022/01/22 12:30:38;;;;;;;15.80;6.07;;;;;;;;;;5086421;28;20052;-77
2022/01/22 12:33:11;;;;;;;18.48;5.45;;;;;;;;;;5100729;28;20063;-77
2022/01/22 12:35:48;;;;;;;11.70;5.03;;;;;;;;;;5086937;27;20048;-75
2022/01/22 12:38:17;;;;;;;14.35;5.30;;;;;;;;;;5098973;27;20568;-77
2022/01/22 12:40:44;;;;;;;13.48;4.97;;;;;;;;;;5087639;28;20449;-77
2022/01/22 12:43:15;;;;;;;11.18;4.50;;;;;;;;;;5075697;28;20098;-77
2022/01/22 12:45:44;;;;;;;14.73;5.30;;;;;;;;;;5089108;28;20176;-77
2022/01/22 12:48:12;;;;;;;13.70;4.70;;;;;;;;;;5104125;27;20494;-78
2022/01/22 12:50:38;;;;;;;10.45;4.13;;;;;;;;;;5089054;28;20407;-78
2022/01/22 12:53:12;;;;;;;8.23;3.63;;;;;;;;;;5107726;28;20086;-77
2022/01/22 12:58:27;;;;;;;9.77;3.47;;;;;;;;;;5105996;27;20083;-77
2022/01/22 13:01:28;;;;;;;8.07;3.47;;;;;;;;;;5104349;27;20121;-77
2022/01/22 13:03:55;;;;;;;10.27;3.85;;;;;;;;;;5062141;28;20147;-77
2022/01/22 13:06:35;;;;;;;9.65;3.63;;;;;;;;;;5110595;27;20102;-77
2022/01/22 13:09:02;;;;;;;9.80;3.45;;;;;;;;;;5110744;28;20499;-78
2022/01/22 13:11:29;;;;;;;10.93;3.30;;;;;;;;;;5110766;28;20090;-77
2022/01/22 13:13:59;;;;;;;9.52;3.20;;;;;;;;;;5107204;27;20508;-78
2022/01/22 13:16:25;;;;;;;13.68;3.85;;;;;;;;;;5089146;28;20061;-77
2022/01/22 13:18:58;;;;;;;8.82;3.35;;;;;;;;;;5082497;28;20056;-77
2022/01/22 13:21:26;;;;;;;12.15;3.85;;;;;;;;;;5091347;28;20106;-77
2022/01/22 13:23:58;;;;;;;15.32;3.72;;;;;;;;;;5090757;28;20502;-77
2022/01/22 13:26:43;;;;;;;9.27;3.90;;;;;;;;;;5091521;28;20051;-77
2022/01/22 13:29:27;;;;;;;11.90;3.90;;;;;;;;;;5092975;27;20533;-77
2022/01/22 13:31:57;;;;;;;18.42;4.82;;;;;;;;;;5092501;28;20056;-77
2022/01/22 13:34:35;;;;;;;12.40;4.88;;;;;;;;;;5088526;28;20510;-77
2022/01/22 13:37:42;;;;;;;12.85;5.20;;;;;;;;;;5092037;28;20124;-77
2022/01/22 13:40:24;;;;;;;12.77;5.25;;;;;;;;;;5110297;28;20095;-78
2022/01/22 13:48:28;;;;;;;14.75;5.13;;;;;;;;;;5104149;28;20066;-78
2022/01/22 13:50:55;;;;;;;11.15;5.82;;;;;;;;;;5102897;27;20052;-78
2022/01/22 13:53:22;;;;;;;16.77;6.30;;;;;;;;;;5100826;28;20053;-78
2022/01/22 13:56:01;;;;;;;13.20;5.60;;;;;;;;;;5110338;28;20913;-78
2022/01/22 13:58:27;;;;;;;11.15;5.32;;;;;;;;;;5112228;28;20429;-78
2022/01/22 14:00:54;;;;;;;14.77;5.60;;;;;;;;;;5110414;27;20055;-78
2022/01/22 14:03:44;;;;;;;13.32;5.90;;;;;;;;;;5111867;28;20048;-78
2022/01/22 14:06:12;;;;;;;16.85;5.75;;;;;;;;;;5091759;28;20098;-77
2022/01/22 14:08:38;;;;;;;17.60;7.05;;;;;;;;;;5092133;27;20465;-78
2022/01/22 14:11:09;;;;;;;13.38;5.53;;;;;;;;;;5091921;28;20126;-78
2022/01/22 14:13:35;;;;;;;;;;;;;;;;;;5088962;28;20084;-78
2022/01/22 14:16:14;;;;;;;15.40;5.93;;;;;;;;;;5080969;28;48767;-78
2022/01/22 14:18:42;;;;;;;14.45;5.93;;;;;;;;;;5075460;28;20060;-78
2022/01/22 14:21:12;;;;;;;18.05;6.38;;;;;;;;;;5098930;28;20076;-78
2022/01/22 14:23:40;;;;;;;16.63;6.97;;;;;;;;;;5105832;27;20102;-77
2022/01/22 14:26:18;;;;;;;18.80;6.20;;;;;;;;;;5096401;27;20056;-78
2022/01/22 14:28:49;;;;;;;17.17;6.40;;;;;;;;;;5106690;27;20828;-78
2022/01/22 14:31:15;;;;;;;;;;;;;;;;;;5091948;28;20056;-78
2022/01/22 14:33:41;;;;;;;16.25;6.53;;;;;;;;;;5111178;27;45036;-78
2022/01/22 14:36:08;;;;;;;22.88;7.78;;;;;;;;;;5109981;28;20052;-78
2022/01/22 14:38:45;;;;;;;14.02;6.25;;;;;;;;;;5110093;28;20676;-78
2022/01/22 14:44:24;;;;;;;13.93;6.25;;;;;;;;;;5105781;28;20133;-78
2022/01/22 14:46:53;;;;;;;21.13;7.25;;;;;;;;;;5109061;28;20048;-78
2022/01/22 14:49:23;;;;;;;13.75;6.75;;;;;;;;;;5092880;28;20118;-78
2022/01/22 14:51:50;;;;;;;16.77;6.20;;;;;;;;;;5098467;27;20490;-78
2022/01/22 14:54:19;;;;;;;14.98;5.80;;;;;;;;;;5095307;28;20083;-78
2022/01/22 14:56:45;;;;;;;15.75;6.65;;;;;;;;;;5099896;27;20044;-78
2022/01/22 14:59:11;;;;;;;15.23;6.78;;;;;;;;;;5092887;28;20110;-78
2022/01/22 15:01:38;;;;;;;14.27;6.30;;;;;;;;;;5106288;27;20080;-78
2022/01/22 15:04:04;;;;;;;15.38;7.50;;;;;;;;;;5091565;28;20135;-77
2022/01/22 15:06:51;;;;;;;12.68;6.72;;;;;;;;;;5089031;28;20086;-78
2022/01/22 15:09:18;;;;;;;14.82;7.03;;;;;;;;;;5105847;28;20682;-77
2022/01/22 15:11:44;;;;;;;16.73;7.00;;;;;;;;;;5104997;28;20056;-78
2022/01/22 15:14:11;;;;;;;14.90;6.80;;;;;;;;;;5088621;28;20465;-78
2022/01/22 15:16:46;;;;;;;17.33;7.43;;;;;;;;;;5105927;27;20867;-78
2022/01/22 15:19:15;;;;;;;16.15;6.28;;;;;;;;;;5104988;27;20054;-78
2022/01/22 15:21:42;;;;;;;16.42;7.13;;;;;;;;;;5094835;27;20051;-78
2022/01/22 15:24:09;;;;;;;15.63;7.50;;;;;;;;;;5100873;28;20037;-77
2022/01/22 15:26:35;;;;;;;14.95;6.95;;;;;;;;;;5110607;27;20056;-78
2022/01/22 15:29:03;;;;;;;17.92;7.07;;;;;;;;;;5109856;28;20052;-78
2022/01/22 15:37:01;;;;;;;18.02;7.68;;;;;;;;;;5110632;28;20040;-78
2022/01/22 15:39:28;;;;;;;15.88;7.72;;;;;;;;;;5109629;27;20130;-78
2022/01/22 15:41:56;;;;;;;19.02;7.85;;;;;;;;;;5090568;28;20051;-78
2022/01/22 15:44:23;;;;;;;17.55;8.55;;;;;;;;;;5092887;27;20497;-77
2022/01/22 15:46:51;;;;;;;16.20;7.93;;;;;;;;;;5097766;27;20079;-78
2022/01/22 15:49:19;;;;;;;20.13;8.90;;;;;;;;;;5091166;28;20275;-77
2022/01/22 15:51:47;;;;;;;18.20;8.82;;;;;;;;;;5090142;28;20052;-78
2022/01/22 15:54:14;;;;;;;19.75;8.30;;;;;;;;;;5108718;28;20051;-77
2022/01/22 15:56:42;;;;;;;16.77;8.10;;;;;;;;;;5108267;27;20519;-78
2022/01/22 15:59:08;;;;;;;19.40;8.05;;;;;;;;;;5093058;27;20522;-78
2022/01/22 16:01:41;;;;;;;19.73;8.50;;;;;;;;;;5084699;28;20060;-78
2022/01/22 16:04:08;;;;;;;19.13;8.15;;;;;;;;;;5107967;27;20056;-78
2022/01/22 16:06:39;;;;;;;20.50;8.90;;;;;;;;;;5086320;28;20052;-77
2022/01/22 16:09:08;;;;;;;21.70;9.07;;;;;;;;;;5086860;28;20110;-77
2022/01/22 16:11:54;;;;;;;21.35;8.77;;;;;;;;;;5108505;27;20054;-78
2022/01/22 16:14:40;;;;;;;22.67;10.50;;;;;;;;;;5090588;27;20079;-78
2022/01/22 16:17:07;;;;;;;24.10;11.48;;;;;;;;;;5090423;28;20052;-78
2022/01/22 16:19:35;;;;;;;25.13;11.88;;;;;;;;;;5090509;28;20052;-78
2022/01/22 16:22:01;;;;;;;22.80;11.95;;;;;;;;;;5108929;28;20052;-78
2022/01/22 16:24:28;;;;;;;24.15;11.32;;;;;;;;;;5094044;27;21089;-78
2022/01/22 16:26:54;;;;;;;22.70;10.35;;;;;;;;;;5086367;28;20048;-78
2022/01/22 16:29:25;;;;;;;22.10;11.38;;;;;;;;;;5105336;27;20076;-78
2022/01/22 16:31:52;;;;;;;25.83;10.57;;;;;;;;;;5106110;27;20126;-78
2022/01/22 16:34:18;;;;;;;20.65;10.90;;;;;;;;;;5091503;27;20052;-78
2022/01/22 16:36:45;;;;;;;22.00;10.27;;;;;;;;;;5090124;28;20079;-78
2022/01/22 16:39:11;;;;;;;24.23;10.60;;;;;;;;;;5109200;27;20064;-78
2022/01/22 16:41:38;;;;;;;23.30;10.02;;;;;;;;;;5095179;28;20112;-77
2022/01/22 16:44:33;;;;;;;25.05;11.15;;;;;;;;;;5085533;28;20143;-78
2022/01/22 16:53:27;;;;;;;21.33;10.63;;;;;;;;;;5111293;27;20071;-78